MDT,Max TemperatureF,Mean TemperatureF,Min TemperatureF,Max Dew PointF,MeanDew PointF,Min DewpointF,Max Humidity, Mean Humidity, Min Humidity, Max Sea Level PressureIn, Mean Sea Level PressureIn, Min Sea Level PressureIn, Max VisibilityMiles, Mean VisibilityMiles, Min VisibilityMiles, Max Wind SpeedMPH, Mean Wind SpeedMPH, Max Gust SpeedMPH,PrecipitationIn, CloudCover, Events, WindDirDegrees
2013-3-1,55,41,27,23,18,12,75,44,18,30.35,30.28,30.22,10,10,10,12,6,,0.00,0,,311
2013-3-2,64,48,32,28,22,20,66,43,18,30.38,30.24,30.05,10,10,10,15,8,22,0.00,0,,246
2013-3-3,79,59,39,27,15,2,57,23,6,30.02,29.75,29.56,10,10,8,41,15,48,0.00,0,,250
2013-3-4,73,55,37,34,23,16,60,34,11,30.17,29.79,29.53,10,8,2,43,20,52,0.00,3,,325
2013-3-5,54,40,26,22,18,14,72,45,22,30.43,30.30,30.21,10,10,10,12,5,21,0.00,0,,222
2013-3-6,66,51,36,22,19,17,50,31,17,30.22,30.05,29.90,10,10,10,28,13,37,0.00,0,,217
2013-3-7,80,60,39,26,21,17,49,25,11,29.93,29.84,29.76,10,10,10,20,13,33,0.00,0,,223
2013-3-8,78,65,52,42,29,20,69,34,11,29.79,29.70,29.59,10,10,10,31,13,38,0.00,3,Rain,236
2013-3-9,57,50,39,41,23,12,64,38,17,29.90,29.67,29.55,10,10,5,40,24,50,0.00,4,Rain,271
2013-3-10,50,40,30,19,12,4,52,35,15,30.14,30.06,29.91,10,10,3,34,20,46,0.00,2,,2
2013-3-11,71,47,26,19,14,9,55,31,10,30.09,29.95,29.81,10,10,10,12,6,,0.00,0,,255
2013-3-12,54,45,36,29,26,15,67,49,28,30.30,30.19,29.88,10,10,10,25,12,32,0.00,0,,58
2013-3-13,75,54,36,27,22,19,67,36,13,30.30,30.20,30.07,10,10,10,18,7,23,0.00,0,,191
2013-3-14,79,60,42,22,21,20,43,25,12,30.17,30.10,30.05,10,10,10,16,9,28,0.00,0,,328
2013-3-15,86,64,43,24,16,6,45,21,5,30.03,29.87,29.70,10,10,10,13,8,20,0.00,0,,277
2013-3-16,66,56,45,33,25,14,52,32,19,29.86,29.75,29.65,10,10,10,22,10,30,0.00,0,,41
2013-3-17,77,54,34,32,22,7,70,30,9,29.83,29.65,29.49,10,8,1,40,15,52,0.00,2,,271
2013-3-18,72,55,39,22,10,-1,45,21,6,29.99,29.83,29.62,10,10,10,28,12,33,0.00,0,,209
2013-3-19,57,46,35,19,14,3,42,29,20,30.23,30.00,29.85,10,10,10,26,8,31,0.00,0,,46
2013-3-20,64,46,28,30,22,15,58,38,24,30.32,30.09,29.75,10,10,10,30,10,38,0.00,0,,224
2013-3-21,81,64,48,34,22,0,52,28,5,29.67,29.50,29.33,10,10,6,31,20,43,0.00,0,,266
2013-3-22,63,48,33,35,30,27,76,52,29,29.88,29.71,29.56,10,10,7,29,10,36,0.00,1,,128
2013-3-23,68,47,26,36,11,-17,68,33,4,30.17,29.76,29.47,10,6,1,50,24,63,0.00,3,,335
2013-3-24,51,34,16,11,4,-1,62,34,12,30.26,30.13,29.94,10,10,10,22,9,30,0.00,0,,116
2013-3-25,50,34,19,21,13,7,74,46,18,30.35,30.27,30.19,10,10,10,10,4,17,0.00,1,,98
2013-3-26,68,47,28,12,10,9,47,25,11,30.32,30.11,29.92,10,10,10,26,12,34,0.00,0,,210
2013-3-27,80,62,44,22,14,7,32,18,6,29.98,29.88,29.80,10,10,10,23,16,32,0.00,0,,236
2013-3-28,82,60,39,24,20,11,49,26,7,30.05,29.95,29.85,10,10,10,18,9,29,0.00,0,,272
2013-3-29,79,60,43,38,26,17,60,31,10,30.04,29.94,29.86,10,10,10,16,8,21,0.00,0,,20
2013-3-30,81,60,42,27,20,15,41,21,9,30.01,29.88,29.74,10,10,10,18,7,18,0.00,0,,259
2013-3-31,73,59,45,41,34,26,71,43,22,30.09,29.96,29.80,10,9,2,40,17,55,0.00,1,,52